Aeroporto :
LOGIN :

Iscrizione | Disclaimer

   EN    FR    IT 

 










Sommario :    VFR   VFR Marginale   IFR   IFR Intensivo   IFR Molto Intensivo
Visibilità : 
Base nubi : 
>= 8 km
>= 3000ft
5 / 8 km
1000 / 3000 ft
1500m / 5 km
500 / 1000 ft
800 / 1500m
200 / 500 ft
< 800m
< 200 ft
Simboli :   Temporali  Nebbia  Neve Forte  Precipitazioni Forti  Vento > 20 kt
SIGMETs :   Varie  Temporali  Ghiacco  Turbolenza  Onda orograficha  Ceneri Vulcaniche






- Altitudine del aeroporto : 1475 ft


LSZC - Buochs Stans

ULTIMO METAR :
  • 051320Z VRB02KT 9999 FEW060 BKN070 BKN085 20/15 Q1012

METARs OBSOLETI :
  • 051250Z 21005KT 9999 -RA FEW033TCU SCT070 OVC080 18/15 Q1012
  • 051220Z AUTO 26010KT 9999 RA FEW030 SCT034 BKN042 18/14 Q1012
  • 051150Z AUTO VRB02KT 9999 FEW085 20/14 Q1012
  • 051120Z AUTO VRB03KT 9999 FEW080 OVC090 20/14 Q1012
  • 051050Z AUTO 09005KT 9999 NSC 19/14 Q1012

TAF TAF LSZC
Valido dal 05 a 12 ore il 05 a 21 ore UTC


051125Z 0512/0521 09005KT 9999 FEW015 BKN060
TEMPO 0512/0517 SHRA SCT035TCU
PROB30
TEMPO 0512/0516 27010G25KT 4000 TSRA SCT030CB



MetMap, La meteo Aeronautica in un colpo d'occhio ! - Copyright ORBIFLY Dicembre 2007 - Disclaimer

ORBIFLY MET'MAP TEAM :

Programmazione e sviluppo : Alexandra Zaïnal
Concezione : Baudouin d'Aumeries
Aiuto per la programmazione : Marc-Olivier Méhu
Supporto tecnico e logistico : Manuel Goepfert
Aiuto per la traduzione : Arnaldo La Scala

Contatto : metmap@orbifly.com




FONTI E CREDITI :

   NOAA